sensor_id;sensor_type;location;lat;lon;timestamp;temperature;humidity
352;DHT22;164;50.784;6.496;2022-08-16T00:02:23;20.90;1.00
352;DHT22;164;50.784;6.496;2022-08-16T00:05:07;20.90;1.00
352;DHT22;164;50.784;6.496;2022-08-16T00:07:38;20.90;1.00
352;DHT22;164;50.784;6.496;2022-08-16T00:10:16;20.90;1.00
352;DHT22;164;50.784;6.496;2022-08-16T00:13:07;20.90;1.00
352;DHT22;164;50.784;6.496;2022-08-16T00:18:20;20.80;1.00
352;DHT22;164;50.784;6.496;2022-08-16T00:21:22;20.80;1.00
352;DHT22;164;50.784;6.496;2022-08-16T00:23:49;20.70;1.00
352;DHT22;164;50.784;6.496;2022-08-16T00:26:16;20.70;1.00
352;DHT22;164;50.784;6.496;2022-08-16T00:28:55;20.70;1.00
352;DHT22;164;50.784;6.496;2022-08-16T00:31:31;20.70;1.00
352;DHT22;164;50.784;6.496;2022-08-16T00:34:10;20.70;1.00
352;DHT22;164;50.784;6.496;2022-08-16T00:36:39;20.70;1.00
352;DHT22;164;50.784;6.496;2022-08-16T00:39:19;20.60;1.00
352;DHT22;164;50.784;6.496;2022-08-16T00:41:55;20.50;1.00
352;DHT22;164;50.784;6.496;2022-08-16T00:44:25;20.40;1.00
352;DHT22;164;50.784;6.496;2022-08-16T00:47:03;20.40;1.00
352;DHT22;164;50.784;6.496;2022-08-16T00:49:31;20.40;1.00
352;DHT22;164;50.784;6.496;2022-08-16T00:52:31;20.40;1.00
352;DHT22;164;50.784;6.496;2022-08-16T00:54:59;20.40;1.00
352;DHT22;164;50.784;6.496;2022-08-16T00:57:29;20.50;1.00
352;DHT22;164;50.784;6.496;2022-08-16T01:00:06;20.40;1.00
352;DHT22;164;50.784;6.496;2022-08-16T01:02:43;20.40;1.00
352;DHT22;164;50.784;6.496;2022-08-16T01:05:23;20.30;1.00
352;DHT22;164;50.784;6.496;2022-08-16T01:08:19;20.30;1.00
352;DHT22;164;50.784;6.496;2022-08-16T01:10:47;20.30;1.00
352;DHT22;164;50.784;6.496;2022-08-16T01:13:16;20.30;1.00
352;DHT22;164;50.784;6.496;2022-08-16T01:16:06;20.30;1.00
352;DHT22;164;50.784;6.496;2022-08-16T01:19:17;20.20;1.00
352;DHT22;164;50.784;6.496;2022-08-16T01:21:53;20.10;1.00
352;DHT22;164;50.784;6.496;2022-08-16T01:24:49;20.10;1.00
352;DHT22;164;50.784;6.496;2022-08-16T01:27:22;20.00;1.00
352;DHT22;164;50.784;6.496;2022-08-16T01:29:54;20.00;1.00
352;DHT22;164;50.784;6.496;2022-08-16T01:32:34;20.00;1.00
352;DHT22;164;50.784;6.496;2022-08-16T01:35:35;20.00;1.00
352;DHT22;164;50.784;6.496;2022-08-16T01:38:25;20.00;1.00
352;DHT22;164;50.784;6.496;2022-08-16T01:41:02;20.00;1.00
352;DHT22;164;50.784;6.496;2022-08-16T01:43:41;20.00;1.00
352;DHT22;164;50.784;6.496;2022-08-16T01:46:20;20.00;1.00
352;DHT22;164;50.784;6.496;2022-08-16T01:48:57;20.00;1.00
352;DHT22;164;50.784;6.496;2022-08-16T01:51:29;20.10;1.00
352;DHT22;164;50.784;6.496;2022-08-16T01:53:57;20.10;1.00
352;DHT22;164;50.784;6.496;2022-08-16T01:56:33;20.10;1.00
352;DHT22;164;50.784;6.496;2022-08-16T01:59:14;20.10;1.00
352;DHT22;164;50.784;6.496;2022-08-16T02:01:46;20.00;1.00
352;DHT22;164;50.784;6.496;2022-08-16T02:04:21;20.00;1.00
352;DHT22;164;50.784;6.496;2022-08-16T02:06:52;19.90;1.00
352;DHT22;164;50.784;6.496;2022-08-16T02:09:23;19.80;1.00
352;DHT22;164;50.784;6.496;2022-08-16T02:11:55;19.70;1.00
352;DHT22;164;50.784;6.496;2022-08-16T02:14:29;19.70;1.00
352;DHT22;164;50.784;6.496;2022-08-16T02:17:15;19.60;1.00
352;DHT22;164;50.784;6.496;2022-08-16T02:19:45;19.60;1.00
352;DHT22;164;50.784;6.496;2022-08-16T02:22:24;19.50;1.00
352;DHT22;164;50.784;6.496;2022-08-16T02:24:58;19.50;1.00
352;DHT22;164;50.784;6.496;2022-08-16T02:27:40;19.40;1.00
352;DHT22;164;50.784;6.496;2022-08-16T02:30:27;19.40;1.00
352;DHT22;164;50.784;6.496;2022-08-16T02:32:58;19.40;1.00
352;DHT22;164;50.784;6.496;2022-08-16T02:35:26;19.40;1.00
352;DHT22;164;50.784;6.496;2022-08-16T02:37:55;19.40;1.00
352;DHT22;164;50.784;6.496;2022-08-16T02:40:25;19.30;1.00
352;DHT22;164;50.784;6.496;2022-08-16T02:42:57;19.30;1.00
352;DHT22;164;50.784;6.496;2022-08-16T02:45:27;19.30;1.00
352;DHT22;164;50.784;6.496;2022-08-16T02:48:04;19.30;1.00
352;DHT22;164;50.784;6.496;2022-08-16T02:50:34;19.30;1.00
352;DHT22;164;50.784;6.496;2022-08-16T02:53:15;19.20;1.00
352;DHT22;164;50.784;6.496;2022-08-16T02:55:45;19.20;1.00
352;DHT22;164;50.784;6.496;2022-08-16T02:58:14;19.20;1.00
352;DHT22;164;50.784;6.496;2022-08-16T03:00:41;19.20;1.00
352;DHT22;164;50.784;6.496;2022-08-16T03:03:11;19.20;1.00
352;DHT22;164;50.784;6.496;2022-08-16T03:05:53;19.20;1.00
352;DHT22;164;50.784;6.496;2022-08-16T03:08:23;19.10;1.00
352;DHT22;164;50.784;6.496;2022-08-16T03:11:08;19.10;1.00
352;DHT22;164;50.784;6.496;2022-08-16T03:14:26;19.10;1.00
352;DHT22;164;50.784;6.496;2022-08-16T03:16:59;19.10;1.00
352;DHT22;164;50.784;6.496;2022-08-16T03:19:31;19.10;1.00
352;DHT22;164;50.784;6.496;2022-08-16T03:21:58;19.10;1.00
352;DHT22;164;50.784;6.496;2022-08-16T03:24:34;19.10;1.00
352;DHT22;164;50.784;6.496;2022-08-16T03:27:04;19.10;1.00
352;DHT22;164;50.784;6.496;2022-08-16T03:29:32;19.10;1.00
352;DHT22;164;50.784;6.496;2022-08-16T03:32:03;19.10;1.00
352;DHT22;164;50.784;6.496;2022-08-16T03:34:45;19.10;1.00
352;DHT22;164;50.784;6.496;2022-08-16T03:37:18;19.10;1.00
352;DHT22;164;50.784;6.496;2022-08-16T03:39:48;19.10;1.00
352;DHT22;164;50.784;6.496;2022-08-16T03:42:24;19.10;1.00
352;DHT22;164;50.784;6.496;2022-08-16T03:45:15;19.10;1.00
352;DHT22;164;50.784;6.496;2022-08-16T03:47:48;19.10;1.00
352;DHT22;164;50.784;6.496;2022-08-16T03:50:18;19.10;1.00
352;DHT22;164;50.784;6.496;2022-08-16T03:52:48;19.10;1.00
352;DHT22;164;50.784;6.496;2022-08-16T03:55:15;19.10;1.00
352;DHT22;164;50.784;6.496;2022-08-16T03:57:51;19.00;1.00
352;DHT22;164;50.784;6.496;2022-08-16T04:00:22;19.00;1.00
352;DHT22;164;50.784;6.496;2022-08-16T04:03:03;19.00;1.00
352;DHT22;164;50.784;6.496;2022-08-16T04:05:32;19.00;1.00
352;DHT22;164;50.784;6.496;2022-08-16T04:08:04;18.90;1.00
352;DHT22;164;50.784;6.496;2022-08-16T04:10:32;19.00;1.00
352;DHT22;164;50.784;6.496;2022-08-16T04:13:05;18.90;1.00
352;DHT22;164;50.784;6.496;2022-08-16T04:15:37;18.90;1.00
352;DHT22;164;50.784;6.496;2022-08-16T04:18:07;18.90;1.00
352;DHT22;164;50.784;6.496;2022-08-16T04:20:38;18.90;1.00
352;DHT22;164;50.784;6.496;2022-08-16T04:23:08;18.90;1.00
352;DHT22;164;50.784;6.496;2022-08-16T04:25:36;18.80;1.00
352;DHT22;164;50.784;6.496;2022-08-16T04:28:15;18.80;1.00
352;DHT22;164;50.784;6.496;2022-08-16T04:30:43;18.80;1.00
352;DHT22;164;50.784;6.496;2022-08-16T04:33:10;18.80;1.00
352;DHT22;164;50.784;6.496;2022-08-16T04:35:40;18.80;1.00
352;DHT22;164;50.784;6.496;2022-08-16T04:38:10;18.80;1.00
352;DHT22;164;50.784;6.496;2022-08-16T04:40:46;18.70;1.00
352;DHT22;164;50.784;6.496;2022-08-16T04:43:16;18.70;1.00
352;DHT22;164;50.784;6.496;2022-08-16T04:45:45;18.70;1.00
352;DHT22;164;50.784;6.496;2022-08-16T04:48:12;18.70;1.00
352;DHT22;164;50.784;6.496;2022-08-16T04:50:42;18.60;1.00
352;DHT22;164;50.784;6.496;2022-08-16T04:53:09;18.60;1.00
352;DHT22;164;50.784;6.496;2022-08-16T04:55:37;18.60;1.00
352;DHT22;164;50.784;6.496;2022-08-16T04:58:06;18.60;1.00
352;DHT22;164;50.784;6.496;2022-08-16T05:00:34;18.60;1.00
352;DHT22;164;50.784;6.496;2022-08-16T05:03:05;18.60;1.00
352;DHT22;164;50.784;6.496;2022-08-16T05:05:38;18.60;1.00
352;DHT22;164;50.784;6.496;2022-08-16T05:08:06;18.70;1.00
352;DHT22;164;50.784;6.496;2022-08-16T05:10:33;18.70;1.00
352;DHT22;164;50.784;6.496;2022-08-16T05:13:04;18.70;1.00
352;DHT22;164;50.784;6.496;2022-08-16T05:15:37;18.70;1.00
352;DHT22;164;50.784;6.496;2022-08-16T05:18:07;18.80;1.00
352;DHT22;164;50.784;6.496;2022-08-16T05:20:34;18.80;1.00
352;DHT22;164;50.784;6.496;2022-08-16T05:23:06;18.80;1.00
352;DHT22;164;50.784;6.496;2022-08-16T05:25:36;18.80;1.00
352;DHT22;164;50.784;6.496;2022-08-16T05:28:04;18.80;1.00
352;DHT22;164;50.784;6.496;2022-08-16T05:30:34;18.90;1.00
352;DHT22;164;50.784;6.496;2022-08-16T05:33:02;18.90;1.00
352;DHT22;164;50.784;6.496;2022-08-16T05:35:30;18.90;1.00
352;DHT22;164;50.784;6.496;2022-08-16T05:37:57;19.00;1.00
352;DHT22;164;50.784;6.496;2022-08-16T05:40:27;19.00;1.00
352;DHT22;164;50.784;6.496;2022-08-16T05:42:54;19.10;1.00
352;DHT22;164;50.784;6.496;2022-08-16T05:45:24;19.20;1.00
352;DHT22;164;50.784;6.496;2022-08-16T05:47:51;19.30;1.00
352;DHT22;164;50.784;6.496;2022-08-16T05:50:20;19.40;1.00
352;DHT22;164;50.784;6.496;2022-08-16T05:52:48;19.40;1.00
352;DHT22;164;50.784;6.496;2022-08-16T05:55:18;19.50;1.00
352;DHT22;164;50.784;6.496;2022-08-16T05:57:46;19.60;1.00
352;DHT22;164;50.784;6.496;2022-08-16T06:00:13;19.70;1.00
352;DHT22;164;50.784;6.496;2022-08-16T06:02:41;19.80;1.00
352;DHT22;164;50.784;6.496;2022-08-16T06:05:11;19.90;1.00
352;DHT22;164;50.784;6.496;2022-08-16T06:07:38;20.00;1.00
352;DHT22;164;50.784;6.496;2022-08-16T06:10:08;20.10;1.00
352;DHT22;164;50.784;6.496;2022-08-16T06:12:36;20.20;1.00
352;DHT22;164;50.784;6.496;2022-08-16T06:15:08;20.30;1.00
352;DHT22;164;50.784;6.496;2022-08-16T06:17:36;20.40;1.00
352;DHT22;164;50.784;6.496;2022-08-16T06:20:07;20.50;1.00
352;DHT22;164;50.784;6.496;2022-08-16T06:22:36;20.70;1.00
352;DHT22;164;50.784;6.496;2022-08-16T06:25:03;20.70;1.00
352;DHT22;164;50.784;6.496;2022-08-16T06:27:31;20.80;1.00
352;DHT22;164;50.784;6.496;2022-08-16T06:30:02;20.90;1.00
352;DHT22;164;50.784;6.496;2022-08-16T06:32:29;21.00;1.00
352;DHT22;164;50.784;6.496;2022-08-16T06:34:59;21.10;1.00
352;DHT22;164;50.784;6.496;2022-08-16T06:37:26;21.20;1.00
352;DHT22;164;50.784;6.496;2022-08-16T06:39:56;21.30;1.00
352;DHT22;164;50.784;6.496;2022-08-16T06:42:23;21.40;1.00
352;DHT22;164;50.784;6.496;2022-08-16T06:44:51;21.50;1.00
352;DHT22;164;50.784;6.496;2022-08-16T06:47:18;21.70;1.00
352;DHT22;164;50.784;6.496;2022-08-16T06:49:45;21.70;1.00
352;DHT22;164;50.784;6.496;2022-08-16T06:52:12;21.80;1.00
352;DHT22;164;50.784;6.496;2022-08-16T06:54:39;21.90;1.00
352;DHT22;164;50.784;6.496;2022-08-16T06:57:06;22.00;1.00
352;DHT22;164;50.784;6.496;2022-08-16T06:59:38;22.10;1.00
352;DHT22;164;50.784;6.496;2022-08-16T07:02:06;22.20;1.00
352;DHT22;164;50.784;6.496;2022-08-16T07:04:33;22.30;1.00
352;DHT22;164;50.784;6.496;2022-08-16T07:07:01;22.40;1.00
352;DHT22;164;50.784;6.496;2022-08-16T07:09:30;22.40;1.00
352;DHT22;164;50.784;6.496;2022-08-16T07:11:57;22.50;1.00
352;DHT22;164;50.784;6.496;2022-08-16T07:14:24;22.60;1.00
352;DHT22;164;50.784;6.496;2022-08-16T07:16:51;22.70;1.00
352;DHT22;164;50.784;6.496;2022-08-16T07:19:19;22.70;1.00
352;DHT22;164;50.784;6.496;2022-08-16T07:21:47;22.80;1.00
352;DHT22;164;50.784;6.496;2022-08-16T07:24:13;22.80;1.00
352;DHT22;164;50.784;6.496;2022-08-16T07:26:43;22.90;1.00
352;DHT22;164;50.784;6.496;2022-08-16T07:29:16;22.90;1.00
352;DHT22;164;50.784;6.496;2022-08-16T07:31:43;22.90;1.00
352;DHT22;164;50.784;6.496;2022-08-16T07:34:10;23.00;1.00
352;DHT22;164;50.784;6.496;2022-08-16T07:36:38;23.10;1.00
352;DHT22;164;50.784;6.496;2022-08-16T07:39:11;23.20;1.00
352;DHT22;164;50.784;6.496;2022-08-16T07:41:38;23.30;1.00
352;DHT22;164;50.784;6.496;2022-08-16T07:44:05;23.30;1.00
352;DHT22;164;50.784;6.496;2022-08-16T07:46:33;23.40;1.00
352;DHT22;164;50.784;6.496;2022-08-16T07:49:03;23.50;1.00
352;DHT22;164;50.784;6.496;2022-08-16T07:51:30;23.60;1.00
352;DHT22;164;50.784;6.496;2022-08-16T07:54:01;23.60;1.00
352;DHT22;164;50.784;6.496;2022-08-16T07:56:28;23.80;1.00
352;DHT22;164;50.784;6.496;2022-08-16T07:58:56;23.80;1.00
352;DHT22;164;50.784;6.496;2022-08-16T08:01:26;23.90;1.00
352;DHT22;164;50.784;6.496;2022-08-16T08:03:59;24.00;1.00
352;DHT22;164;50.784;6.496;2022-08-16T08:06:28;24.00;1.00
352;DHT22;164;50.784;6.496;2022-08-16T08:08:55;24.10;1.00
352;DHT22;164;50.784;6.496;2022-08-16T08:11:25;24.20;1.00
352;DHT22;164;50.784;6.496;2022-08-16T08:13:53;24.20;1.00
352;DHT22;164;50.784;6.496;2022-08-16T08:16:22;24.30;1.00
352;DHT22;164;50.784;6.496;2022-08-16T08:18:51;24.30;1.00
352;DHT22;164;50.784;6.496;2022-08-16T08:21:19;24.30;1.00
352;DHT22;164;50.784;6.496;2022-08-16T08:23:47;24.30;1.00
352;DHT22;164;50.784;6.496;2022-08-16T08:26:14;24.40;1.00
352;DHT22;164;50.784;6.496;2022-08-16T08:28:43;24.40;1.00
352;DHT22;164;50.784;6.496;2022-08-16T08:31:12;24.40;1.00
352;DHT22;164;50.784;6.496;2022-08-16T08:33:39;24.50;1.00
352;DHT22;164;50.784;6.496;2022-08-16T08:36:06;24.60;1.00
352;DHT22;164;50.784;6.496;2022-08-16T08:38:41;24.70;1.00
352;DHT22;164;50.784;6.496;2022-08-16T08:41:09;24.90;1.00
352;DHT22;164;50.784;6.496;2022-08-16T08:43:36;24.90;1.00
352;DHT22;164;50.784;6.496;2022-08-16T08:46:04;25.10;1.00
352;DHT22;164;50.784;6.496;2022-08-16T08:48:36;25.30;1.00
352;DHT22;164;50.784;6.496;2022-08-16T08:51:04;25.50;1.00
352;DHT22;164;50.784;6.496;2022-08-16T08:53:32;25.80;1.00
352;DHT22;164;50.784;6.496;2022-08-16T08:56:02;26.00;1.00
352;DHT22;164;50.784;6.496;2022-08-16T08:58:31;26.20;1.00
352;DHT22;164;50.784;6.496;2022-08-16T09:00:59;26.20;1.00
352;DHT22;164;50.784;6.496;2022-08-16T09:03:27;26.20;1.00
352;DHT22;164;50.784;6.496;2022-08-16T09:05:54;26.30;1.00
352;DHT22;164;50.784;6.496;2022-08-16T09:08:24;26.40;1.00
352;DHT22;164;50.784;6.496;2022-08-16T09:10:52;26.40;1.00
352;DHT22;164;50.784;6.496;2022-08-16T09:13:20;26.50;1.00
352;DHT22;164;50.784;6.496;2022-08-16T09:15:50;26.60;1.00
352;DHT22;164;50.784;6.496;2022-08-16T09:18:17;26.60;1.00
352;DHT22;164;50.784;6.496;2022-08-16T09:20:52;26.60;1.00
352;DHT22;164;50.784;6.496;2022-08-16T09:23:19;26.70;1.00
352;DHT22;164;50.784;6.496;2022-08-16T09:25:49;26.80;1.00
352;DHT22;164;50.784;6.496;2022-08-16T09:28:17;26.90;1.00
352;DHT22;164;50.784;6.496;2022-08-16T09:30:44;27.00;1.00
352;DHT22;164;50.784;6.496;2022-08-16T09:33:14;27.00;1.00
352;DHT22;164;50.784;6.496;2022-08-16T09:35:44;27.00;1.00
352;DHT22;164;50.784;6.496;2022-08-16T09:38:12;27.20;1.00
352;DHT22;164;50.784;6.496;2022-08-16T09:40:40;27.20;1.00
352;DHT22;164;50.784;6.496;2022-08-16T09:43:07;27.30;1.00
352;DHT22;164;50.784;6.496;2022-08-16T09:45:35;27.50;1.00
352;DHT22;164;50.784;6.496;2022-08-16T09:48:05;27.60;1.00
352;DHT22;164;50.784;6.496;2022-08-16T09:50:32;27.70;1.00
352;DHT22;164;50.784;6.496;2022-08-16T09:53:01;27.70;1.00
352;DHT22;164;50.784;6.496;2022-08-16T09:55:29;27.60;1.00
352;DHT22;164;50.784;6.496;2022-08-16T09:57:59;27.50;1.00
352;DHT22;164;50.784;6.496;2022-08-16T10:00:26;27.60;1.00
352;DHT22;164;50.784;6.496;2022-08-16T10:02:53;27.70;1.00
352;DHT22;164;50.784;6.496;2022-08-16T10:05:20;27.80;1.00
352;DHT22;164;50.784;6.496;2022-08-16T10:07:52;28.00;1.00
352;DHT22;164;50.784;6.496;2022-08-16T10:10:22;28.10;1.00
352;DHT22;164;50.784;6.496;2022-08-16T10:12:54;28.20;1.00
352;DHT22;164;50.784;6.496;2022-08-16T10:15:39;28.30;1.00
352;DHT22;164;50.784;6.496;2022-08-16T10:18:08;28.50;1.00
352;DHT22;164;50.784;6.496;2022-08-16T10:20:44;28.60;1.00
352;DHT22;164;50.784;6.496;2022-08-16T10:23:13;28.80;1.00
352;DHT22;164;50.784;6.496;2022-08-16T10:25:41;28.90;1.00
352;DHT22;164;50.784;6.496;2022-08-16T10:28:10;28.90;1.00
352;DHT22;164;50.784;6.496;2022-08-16T10:30:38;28.70;1.00
352;DHT22;164;50.784;6.496;2022-08-16T10:33:08;28.80;1.00
352;DHT22;164;50.784;6.496;2022-08-16T10:35:38;28.90;1.00
352;DHT22;164;50.784;6.496;2022-08-16T10:38:05;28.90;1.00
352;DHT22;164;50.784;6.496;2022-08-16T10:40:33;28.90;1.00
352;DHT22;164;50.784;6.496;2022-08-16T10:43:03;28.90;1.00
352;DHT22;164;50.784;6.496;2022-08-16T10:45:31;29.00;1.00
352;DHT22;164;50.784;6.496;2022-08-16T10:48:04;29.00;1.00
352;DHT22;164;50.784;6.496;2022-08-16T10:50:38;29.10;1.00
352;DHT22;164;50.784;6.496;2022-08-16T10:53:05;29.10;1.00
352;DHT22;164;50.784;6.496;2022-08-16T10:55:38;29.10;1.00
352;DHT22;164;50.784;6.496;2022-08-16T10:58:07;29.30;1.00
352;DHT22;164;50.784;6.496;2022-08-16T11:00:36;29.50;1.00
352;DHT22;164;50.784;6.496;2022-08-16T11:03:06;29.70;1.00
352;DHT22;164;50.784;6.496;2022-08-16T11:05:38;29.90;1.00
352;DHT22;164;50.784;6.496;2022-08-16T11:08:06;29.80;1.00
352;DHT22;164;50.784;6.496;2022-08-16T11:10:38;29.70;1.00
352;DHT22;164;50.784;6.496;2022-08-16T11:13:09;29.60;1.00
352;DHT22;164;50.784;6.496;2022-08-16T11:15:38;29.60;1.00
352;DHT22;164;50.784;6.496;2022-08-16T11:18:08;29.60;1.00
352;DHT22;164;50.784;6.496;2022-08-16T11:20:36;29.60;1.00
352;DHT22;164;50.784;6.496;2022-08-16T11:23:05;29.60;1.00
352;DHT22;164;50.784;6.496;2022-08-16T11:25:32;29.70;1.00
352;DHT22;164;50.784;6.496;2022-08-16T11:28:01;29.70;1.00
352;DHT22;164;50.784;6.496;2022-08-16T11:30:34;29.70;1.00
352;DHT22;164;50.784;6.496;2022-08-16T11:33:03;29.70;1.00
352;DHT22;164;50.784;6.496;2022-08-16T11:35:31;29.80;1.00
352;DHT22;164;50.784;6.496;2022-08-16T11:37:59;29.90;1.00
352;DHT22;164;50.784;6.496;2022-08-16T11:40:31;30.00;1.00
352;DHT22;164;50.784;6.496;2022-08-16T11:43:01;29.80;1.00
352;DHT22;164;50.784;6.496;2022-08-16T11:45:31;29.90;1.00
352;DHT22;164;50.784;6.496;2022-08-16T11:48:00;29.80;1.00
352;DHT22;164;50.784;6.496;2022-08-16T11:50:29;29.90;1.00
352;DHT22;164;50.784;6.496;2022-08-16T11:52:57;30.00;1.00
352;DHT22;164;50.784;6.496;2022-08-16T11:55:25;30.00;1.00
352;DHT22;164;50.784;6.496;2022-08-16T11:57:54;30.00;1.00
352;DHT22;164;50.784;6.496;2022-08-16T12:00:21;30.00;1.00
352;DHT22;164;50.784;6.496;2022-08-16T12:02:48;29.90;1.00
352;DHT22;164;50.784;6.496;2022-08-16T12:05:15;29.90;1.00
352;DHT22;164;50.784;6.496;2022-08-16T12:07:46;29.90;1.00
352;DHT22;164;50.784;6.496;2022-08-16T12:10:16;29.90;1.00
352;DHT22;164;50.784;6.496;2022-08-16T12:12:47;30.10;1.00
352;DHT22;164;50.784;6.496;2022-08-16T12:15:16;30.30;1.00
352;DHT22;164;50.784;6.496;2022-08-16T12:17:44;30.70;1.00
352;DHT22;164;50.784;6.496;2022-08-16T12:20:14;30.90;1.00
352;DHT22;164;50.784;6.496;2022-08-16T12:22:41;31.20;1.00
352;DHT22;164;50.784;6.496;2022-08-16T12:25:13;31.40;1.00
352;DHT22;164;50.784;6.496;2022-08-16T12:27:41;31.40;1.00
352;DHT22;164;50.784;6.496;2022-08-16T12:30:12;31.30;1.00
352;DHT22;164;50.784;6.496;2022-08-16T12:32:40;31.10;1.00
352;DHT22;164;50.784;6.496;2022-08-16T12:35:10;30.80;1.00
352;DHT22;164;50.784;6.496;2022-08-16T12:37:38;30.70;1.00
352;DHT22;164;50.784;6.496;2022-08-16T12:40:07;30.70;1.00
352;DHT22;164;50.784;6.496;2022-08-16T12:42:38;30.80;1.00
352;DHT22;164;50.784;6.496;2022-08-16T12:45:10;30.70;1.00
352;DHT22;164;50.784;6.496;2022-08-16T12:47:38;30.70;1.00
352;DHT22;164;50.784;6.496;2022-08-16T12:50:22;30.70;1.00
352;DHT22;164;50.784;6.496;2022-08-16T12:52:51;30.70;1.00
352;DHT22;164;50.784;6.496;2022-08-16T12:55:21;30.70;1.00
352;DHT22;164;50.784;6.496;2022-08-16T12:57:51;30.70;1.00
352;DHT22;164;50.784;6.496;2022-08-16T13:00:19;30.90;1.00
352;DHT22;164;50.784;6.496;2022-08-16T13:02:46;31.20;1.00
352;DHT22;164;50.784;6.496;2022-08-16T13:05:14;31.70;1.00
352;DHT22;164;50.784;6.496;2022-08-16T13:07:43;32.10;1.00
352;DHT22;164;50.784;6.496;2022-08-16T13:10:12;32.50;1.00
352;DHT22;164;50.784;6.496;2022-08-16T13:12:41;33.00;1.00
352;DHT22;164;50.784;6.496;2022-08-16T13:15:18;33.40;1.00
352;DHT22;164;50.784;6.496;2022-08-16T13:17:45;33.50;1.00
352;DHT22;164;50.784;6.496;2022-08-16T13:20:18;33.60;1.00
352;DHT22;164;50.784;6.496;2022-08-16T13:22:47;33.70;1.00
352;DHT22;164;50.784;6.496;2022-08-16T13:25:17;33.90;1.00
352;DHT22;164;50.784;6.496;2022-08-16T13:27:44;34.10;1.00
352;DHT22;164;50.784;6.496;2022-08-16T13:30:13;34.10;1.00
352;DHT22;164;50.784;6.496;2022-08-16T13:32:42;34.00;1.00
352;DHT22;164;50.784;6.496;2022-08-16T13:35:10;33.80;1.00
352;DHT22;164;50.784;6.496;2022-08-16T13:37:37;33.80;1.00
352;DHT22;164;50.784;6.496;2022-08-16T13:40:05;33.90;1.00
352;DHT22;164;50.784;6.496;2022-08-16T13:42:35;33.90;1.00
352;DHT22;164;50.784;6.496;2022-08-16T13:45:03;33.70;1.00
352;DHT22;164;50.784;6.496;2022-08-16T13:47:37;33.40;1.00
352;DHT22;164;50.784;6.496;2022-08-16T13:50:06;33.20;1.00
352;DHT22;164;50.784;6.496;2022-08-16T13:52:33;33.00;1.00
352;DHT22;164;50.784;6.496;2022-08-16T13:55:00;32.80;1.00
352;DHT22;164;50.784;6.496;2022-08-16T13:57:27;32.90;1.00
352;DHT22;164;50.784;6.496;2022-08-16T13:59:57;33.00;1.00
352;DHT22;164;50.784;6.496;2022-08-16T14:02:24;33.10;1.00
352;DHT22;164;50.784;6.496;2022-08-16T14:04:53;33.30;1.00
352;DHT22;164;50.784;6.496;2022-08-16T14:07:22;33.40;1.00
352;DHT22;164;50.784;6.496;2022-08-16T14:09:49;33.50;1.00
352;DHT22;164;50.784;6.496;2022-08-16T14:12:22;33.20;1.00
352;DHT22;164;50.784;6.496;2022-08-16T14:14:52;33.10;1.00
352;DHT22;164;50.784;6.496;2022-08-16T14:17:23;33.00;1.00
352;DHT22;164;50.784;6.496;2022-08-16T14:19:54;32.90;1.00
352;DHT22;164;50.784;6.496;2022-08-16T14:22:28;33.00;1.00
352;DHT22;164;50.784;6.496;2022-08-16T14:25:00;33.50;1.00
352;DHT22;164;50.784;6.496;2022-08-16T14:27:29;33.60;1.00
352;DHT22;164;50.784;6.496;2022-08-16T14:29:56;33.60;1.00
352;DHT22;164;50.784;6.496;2022-08-16T14:32:28;33.70;1.00
352;DHT22;164;50.784;6.496;2022-08-16T14:34:58;33.70;1.00
352;DHT22;164;50.784;6.496;2022-08-16T14:37:26;33.30;1.00
352;DHT22;164;50.784;6.496;2022-08-16T14:39:53;33.10;1.00
352;DHT22;164;50.784;6.496;2022-08-16T14:42:22;32.70;1.00
352;DHT22;164;50.784;6.496;2022-08-16T14:44:52;32.40;1.00
352;DHT22;164;50.784;6.496;2022-08-16T14:47:19;32.10;1.00
352;DHT22;164;50.784;6.496;2022-08-16T14:49:47;31.80;1.00
352;DHT22;164;50.784;6.496;2022-08-16T14:52:20;31.30;1.00
352;DHT22;164;50.784;6.496;2022-08-16T14:54:50;30.90;1.00
352;DHT22;164;50.784;6.496;2022-08-16T14:57:19;30.80;1.00
352;DHT22;164;50.784;6.496;2022-08-16T14:59:49;30.60;1.00
352;DHT22;164;50.784;6.496;2022-08-16T15:02:21;30.50;1.00
352;DHT22;164;50.784;6.496;2022-08-16T15:04:48;30.40;1.00
352;DHT22;164;50.784;6.496;2022-08-16T15:07:19;30.40;1.00
352;DHT22;164;50.784;6.496;2022-08-16T15:09:47;30.50;1.00
352;DHT22;164;50.784;6.496;2022-08-16T15:12:16;30.70;1.00
352;DHT22;164;50.784;6.496;2022-08-16T15:14:50;31.00;1.00
352;DHT22;164;50.784;6.496;2022-08-16T15:17:24;31.20;1.00
352;DHT22;164;50.784;6.496;2022-08-16T15:19:54;31.50;1.00
352;DHT22;164;50.784;6.496;2022-08-16T15:22:27;31.80;1.00
352;DHT22;164;50.784;6.496;2022-08-16T15:24:56;32.20;1.00
352;DHT22;164;50.784;6.496;2022-08-16T15:27:25;32.60;1.00
352;DHT22;164;50.784;6.496;2022-08-16T15:29:56;33.30;1.00
352;DHT22;164;50.784;6.496;2022-08-16T15:32:23;33.50;1.00
352;DHT22;164;50.784;6.496;2022-08-16T15:34:54;33.60;1.00
352;DHT22;164;50.784;6.496;2022-08-16T15:37:22;34.00;1.00
352;DHT22;164;50.784;6.496;2022-08-16T15:39:50;34.70;1.00
352;DHT22;164;50.784;6.496;2022-08-16T15:42:17;35.60;1.00
352;DHT22;164;50.784;6.496;2022-08-16T15:45:05;36.60;1.00
352;DHT22;164;50.784;6.496;2022-08-16T15:47:35;37.70;1.00
352;DHT22;164;50.784;6.496;2022-08-16T15:50:03;38.40;1.00
352;DHT22;164;50.784;6.496;2022-08-16T15:52:34;38.50;1.00
352;DHT22;164;50.784;6.496;2022-08-16T15:55:05;38.90;1.00
352;DHT22;164;50.784;6.496;2022-08-16T15:57:39;39.20;1.00
352;DHT22;164;50.784;6.496;2022-08-16T16:00:07;39.30;1.00
352;DHT22;164;50.784;6.496;2022-08-16T16:02:36;39.20;1.00
352;DHT22;164;50.784;6.496;2022-08-16T16:05:11;38.70;1.00
352;DHT22;164;50.784;6.496;2022-08-16T16:07:41;37.90;1.00
352;DHT22;164;50.784;6.496;2022-08-16T16:10:11;37.20;1.00
352;DHT22;164;50.784;6.496;2022-08-16T16:12:40;37.20;1.00
352;DHT22;164;50.784;6.496;2022-08-16T16:15:08;37.20;1.00
352;DHT22;164;50.784;6.496;2022-08-16T16:17:38;37.20;1.00
352;DHT22;164;50.784;6.496;2022-08-16T16:20:06;37.50;1.00
352;DHT22;164;50.784;6.496;2022-08-16T16:22:33;37.00;1.00
352;DHT22;164;50.784;6.496;2022-08-16T16:25:02;36.40;1.00
352;DHT22;164;50.784;6.496;2022-08-16T16:27:32;36.00;1.00
352;DHT22;164;50.784;6.496;2022-08-16T16:30:03;35.50;1.00
352;DHT22;164;50.784;6.496;2022-08-16T16:32:33;35.00;1.00
352;DHT22;164;50.784;6.496;2022-08-16T16:35:00;35.00;1.00
352;DHT22;164;50.784;6.496;2022-08-16T16:37:27;35.00;1.00
352;DHT22;164;50.784;6.496;2022-08-16T16:39:55;35.20;1.00
352;DHT22;164;50.784;6.496;2022-08-16T16:42:24;35.00;1.00
352;DHT22;164;50.784;6.496;2022-08-16T16:44:51;34.50;1.00
352;DHT22;164;50.784;6.496;2022-08-16T16:47:24;34.30;1.00
352;DHT22;164;50.784;6.496;2022-08-16T16:49:54;34.40;1.00
352;DHT22;164;50.784;6.496;2022-08-16T16:52:27;34.50;1.00
352;DHT22;164;50.784;6.496;2022-08-16T16:54:54;34.40;1.00
352;DHT22;164;50.784;6.496;2022-08-16T16:57:28;34.20;1.00
352;DHT22;164;50.784;6.496;2022-08-16T17:00:13;33.80;1.00
352;DHT22;164;50.784;6.496;2022-08-16T17:02:41;33.40;1.00
352;DHT22;164;50.784;6.496;2022-08-16T17:05:09;33.10;1.00
352;DHT22;164;50.784;6.496;2022-08-16T17:07:39;32.80;1.00
352;DHT22;164;50.784;6.496;2022-08-16T17:10:08;32.60;1.00
352;DHT22;164;50.784;6.496;2022-08-16T17:12:40;32.50;1.00
352;DHT22;164;50.784;6.496;2022-08-16T17:15:08;32.40;1.00
352;DHT22;164;50.784;6.496;2022-08-16T17:17:37;32.40;1.00
352;DHT22;164;50.784;6.496;2022-08-16T17:20:05;32.40;1.00